Portada
METAR-TAF:

METAR-TAF

Aeroports :

Sint Maarten, Antilles Neerlandeses

latitud: 18-03N, longitud: 063-07W, altitud: 4 m

Observació

L'informe es va fer fa 25 minuts, a les 05:00 UTC
Vent 7 kt del Oest
Temperatura 28°C
Humitat 74%
Pressió 1010 hPa
Visibilitat 10 km o més
Escasses núvols a una alçada de 2000 ft

METAR: TNCM 200500Z 28007KT 9999 FEW020 28/23 Q1010

Hora: 01:25 (05:25 UTC)

Pronòstic

L'informe es va fer fa 5 hores i 53 minuts, a les 23:32 UTC
Pronòstic vàlid del 20 a les 00 UTC al 20 a les 24 UTC
Vent 5 kt del Oest/Nord-Oest
Visibilitat: 10 km
Escasses núvols a una alçada de 1800 ft
A partir de les 20 a les 0400 UTC
Vent 3 kt amb direcció variable
Visibilitat: 10 km
Núvols disperses a una alçada de 1800 ft
A partir de les 20 a les 1400 UTC
Vent 8 kt del Oest
Visibilitat: 10 km
Escasses núvols a una alçada de 2200 ft

TAF: TNCM 192332Z 2000/2024 29005KT P6SM FEW018 FM200400 VRB03KT P6SM SCT018 FM201400 28008KT P6SM FEW022

Observacions i pronòstics meteorològics de més de 4000 aeroports (METAR i TAF).

Les estacions disponibles són els punts grocs i vermells al mapa.

Posi el ratolí al punt desitjat per veure el nom de l'estació.

Feu clic per veure les observacions i els pronòstics meteorològics.

Per canviar el mapa: feu clic els botons verds amb una creu de color negre per apropar; al botó verd amb un guió per allunyar la imatge; o en les fletxes verdes per a mapes adjacents.


METAR-TAF: